Waar ligt Quinta da Boavista in Portugal?

Quinta da Boavista is gevestigd in de regio Santarem in Portugal!

Zoek de plaatsnaam:

Quinta da Cantareira, Quinulpan, Quinta das Várzeas, Quinta Bela Sao Tiago, Quinh Lam

Hier ziet u waar Quinta da Boavista op de kaart ligt.
Voor een indruk van hoe het er nu buiten uitziet staan onderaan wat plaatjes van de omgeving vanuit online web camera's.
U ziet ook de afstanden tot de belangrijkste plaatsen in de regio en tot plaatsen in de rest van Portugal.

Alle plaatsen in de wereld die heten.

new

Waar ligt Quinta da Boavista op de kaart?


Webcams vlakbij Quinta da Boavista

Vasco Carão > South: Garrocheira, Benavente - Airport.


Vasco Carão > South: Garrocheira, Benavente - Airport - Overdag
Recent
Vasco Carão > South: Garrocheira, Benavente - Airport - Recent

Benavente > North-East: AIrport, METAR: BENAV 180005Z 36004KT 17/14 Q1015.


Benavente > North-East: AIrport, METAR: BENAV 180005Z 36004KT 17/14 Q1015 - Overdag
Recent
Benavente > North-East: AIrport, METAR: BENAV 180005Z 36004KT 17/14 Q1015 - Recent

Abrantes > North-West: > North-West: Zona Alta (Torre).


Abrantes > North-West: > North-West: Zona Alta (Torre) - Overdag
Recent
Abrantes > North-West: > North-West: Zona Alta (Torre) - Recent

Webcams provided by webcams.travel

Afstanden

Waar ligt Quinta da Boavista ten opzichte van andere plaatsen?

Top 10 plaatsen in Santarem en afstand vanaf Quinta da Boavista.

Plaats#Inwonerskmmijl
Santarém12938585
Entroncamento2198872415
Tomar3191684025
Torres Novas4145262314
Samora Correia5141544528
Abrantes6136464226
Ourém7127293924
Rio Maior8120642717
Fátima9117983723
Almeirim1011556106

Top 10 plaatsen in Portugal en afstand vanaf Quinta da Boavista.

Plaats # Inwonerskmmijl
Lisbon15177987748
Porto2249630208129
Amadora31788567949
Braga4121393253157
Setúbal51171098754
Coimbra610658010364
Queluz71033988050
Funchal8980411049652
Vila Nova de Gaia970810206128
Loures10662306943

Reisadvies Portugal

Advies en informatie van het ministerie van Buitenlandse Zaken over (zaken)reizen en veiligheidsrisico’s in Portugal via rijksoverheid.nl.

Met een reisadvies kunnen Nederlandse reizigers zich beter voorbereiden op veiligheidsrisico’s tijdens een buitenlands vakantie of verblijf. Wees geinformerd over de risico's op ontvoeringen, gewapende overvallen, bomaanslagen, natuurrampen of oorlogsgeweld. Buitenlandse Zaken vermeldt in een reisadvies bijvoorbeeld welke gebieden in Portugalo onveilig zijn, roept reizigers op tot waakzaamheid of ontraadt reizen.

Reisadvies Portugal



Reisinformatie Portugal

Informatie over residocumenten, aanvragen van een visa en de kosten hiervan. Contactinformatie van de ambassade in Portugal. Informatie over reisverzekeringen.

Reisinformatie Portugal